createdAt,value
2016-08-27T00:00:27.318Z,969.1
2016-08-27T00:01:27.288Z,969.1
2016-08-27T00:02:27.257Z,969.08
2016-08-27T00:03:27.228Z,969.07
2016-08-27T00:04:27.204Z,969.09
2016-08-27T00:05:27.167Z,969.09
2016-08-27T00:06:27.139Z,969.08
2016-08-27T00:07:27.108Z,969.07
2016-08-27T00:08:27.078Z,969.03
2016-08-27T00:09:27.050Z,969
2016-08-27T00:10:27.018Z,969.02
2016-08-27T00:11:26.994Z,969.03
2016-08-27T00:12:26.957Z,969.02
2016-08-27T00:13:26.927Z,969.02
2016-08-27T00:14:26.898Z,969.05
2016-08-27T00:15:26.868Z,969
2016-08-27T00:16:26.838Z,968.98
2016-08-27T00:17:26.809Z,969.04
2016-08-27T00:18:26.778Z,969
2016-08-27T00:19:26.747Z,969.06
2016-08-27T00:20:26.716Z,969.07
2016-08-27T00:21:26.686Z,969.04
2016-08-27T00:22:26.659Z,969.07
2016-08-27T00:23:26.627Z,969.09
2016-08-27T00:24:26.597Z,969.05
2016-08-27T00:25:26.567Z,969.03
2016-08-27T00:26:26.538Z,969.08
2016-08-27T00:27:26.506Z,969.06
2016-08-27T00:28:26.477Z,969.06
2016-08-27T00:29:26.448Z,969.05
2016-08-27T00:30:26.416Z,969.09
2016-08-27T00:31:26.387Z,969.1
2016-08-27T00:32:26.357Z,969.13
2016-08-27T00:33:26.332Z,969.1
2016-08-27T00:34:26.296Z,969.08
2016-08-27T00:35:26.265Z,969.09
2016-08-27T00:36:26.236Z,969.12
2016-08-27T00:37:26.205Z,969.08
2016-08-27T00:38:26.174Z,969.06
2016-08-27T00:39:26.144Z,969.1
2016-08-27T00:40:26.114Z,969.07
2016-08-27T00:41:26.082Z,969.08
2016-08-27T00:42:26.056Z,969.04
2016-08-27T00:43:26.024Z,969.04
2016-08-27T00:44:25.998Z,969.02
2016-08-27T00:45:25.962Z,969.04
2016-08-27T00:46:25.932Z,969.06
2016-08-27T00:47:25.903Z,969.05
2016-08-27T00:48:25.872Z,969.05
2016-08-27T00:49:25.841Z,969.05
2016-08-27T00:50:25.811Z,969.04
2016-08-27T00:51:25.780Z,969.05
2016-08-27T00:52:25.751Z,969.07
2016-08-27T00:53:25.723Z,969.09
2016-08-27T00:54:25.689Z,969.07
2016-08-27T00:55:25.659Z,969.09
2016-08-27T00:56:25.630Z,969.1
2016-08-27T00:57:25.601Z,969.11
2016-08-27T00:58:25.569Z,969.09
2016-08-27T00:59:25.538Z,969.1
2016-08-27T01:00:25.508Z,969.09
2016-08-27T01:01:25.482Z,969.1
2016-08-27T01:02:25.447Z,969.1
2016-08-27T01:03:25.416Z,969.09
2016-08-27T01:04:25.384Z,969.09
2016-08-27T01:05:25.355Z,969.11
2016-08-27T01:06:25.325Z,969.12
2016-08-27T01:07:25.295Z,969.15
2016-08-27T01:08:25.264Z,969.12
2016-08-27T01:09:25.234Z,969.1
2016-08-27T01:10:25.204Z,969.11
2016-08-27T01:11:25.173Z,969.13
2016-08-27T01:12:25.141Z,969.11
2016-08-27T01:13:25.111Z,969.11
2016-08-27T01:14:25.082Z,969.1
2016-08-27T01:15:25.052Z,969.1
2016-08-27T01:16:25.022Z,969.13
2016-08-27T01:17:24.989Z,969.16
2016-08-27T01:18:24.959Z,969.12
2016-08-27T01:19:24.929Z,969.14
2016-08-27T01:20:24.898Z,969.1
2016-08-27T01:21:24.867Z,969.1
2016-08-27T01:22:24.839Z,969.12
2016-08-27T01:23:24.807Z,969.12
2016-08-27T01:24:24.775Z,969.18
2016-08-27T01:25:24.748Z,969.14
2016-08-27T01:26:24.717Z,969.14
2016-08-27T01:27:24.684Z,969.11
2016-08-27T01:28:24.653Z,969.16
2016-08-27T01:29:24.622Z,969.16
2016-08-27T01:30:24.594Z,969.18
2016-08-27T01:31:24.561Z,969.19
2016-08-27T01:32:24.530Z,969.17
2016-08-27T01:33:24.500Z,969.13
2016-08-27T01:34:24.469Z,969.17
2016-08-27T01:35:24.441Z,969.19
2016-08-27T01:36:24.411Z,969.18
2016-08-27T01:37:24.379Z,969.16
2016-08-27T01:38:24.348Z,969.15
2016-08-27T01:39:24.317Z,969.18
2016-08-27T01:40:24.285Z,969.15
2016-08-27T01:41:24.257Z,969.16
2016-08-27T01:42:24.225Z,969.11
2016-08-27T01:43:24.195Z,969.15
2016-08-27T01:44:24.164Z,969.1
2016-08-27T01:45:24.132Z,969.14
2016-08-27T01:46:24.118Z,969.1
2016-08-27T01:47:24.072Z,969.09
2016-08-27T01:48:24.041Z,969.08
2016-08-27T01:49:24.009Z,969.12
2016-08-27T01:50:23.977Z,969.1
2016-08-27T01:51:23.949Z,969.05
2016-08-27T01:52:23.917Z,969.04
2016-08-27T01:53:23.886Z,969.05
2016-08-27T01:54:23.857Z,968.98
2016-08-27T01:55:23.826Z,969.02
2016-08-27T01:56:23.795Z,968.99
2016-08-27T01:57:23.764Z,969.01
2016-08-27T01:58:23.734Z,969.02
2016-08-27T01:59:23.705Z,968.99
2016-08-27T02:00:23.672Z,969.03
2016-08-27T02:01:23.640Z,969.01
2016-08-27T02:02:23.610Z,968.99
2016-08-27T02:03:23.579Z,968.99
2016-08-27T02:04:23.548Z,968.97
2016-08-27T02:05:23.517Z,969
2016-08-27T02:06:23.486Z,969.03
2016-08-27T02:07:23.457Z,969
2016-08-27T02:08:23.426Z,969.04
2016-08-27T02:09:23.395Z,968.98
2016-08-27T02:10:23.363Z,968.99
2016-08-27T02:11:23.331Z,969.01
2016-08-27T02:12:23.301Z,968.96
2016-08-27T02:13:23.270Z,969
2016-08-27T02:14:23.241Z,969.01
2016-08-27T02:15:23.208Z,968.99
2016-08-27T02:16:23.183Z,969
2016-08-27T02:17:23.148Z,969.02
2016-08-27T02:18:23.117Z,968.97
2016-08-27T02:19:23.084Z,969.01
2016-08-27T02:20:23.055Z,968.99
2016-08-27T02:21:23.024Z,968.95
2016-08-27T02:22:22.993Z,968.97
2016-08-27T02:23:22.961Z,968.97
2016-08-27T02:24:22.931Z,968.95
2016-08-27T02:25:22.899Z,968.91
2016-08-27T02:26:22.869Z,968.93
2016-08-27T02:27:22.838Z,968.93
2016-08-27T02:28:22.808Z,968.9
2016-08-27T02:29:22.775Z,968.92
2016-08-27T02:30:22.747Z,968.92
2016-08-27T02:31:22.714Z,968.87
2016-08-27T02:32:22.686Z,968.86
2016-08-27T02:33:22.652Z,968.88
2016-08-27T02:34:22.621Z,968.9
2016-08-27T02:35:22.591Z,968.87
2016-08-27T02:36:22.561Z,968.92
2016-08-27T02:37:22.528Z,968.9
2016-08-27T02:38:22.499Z,968.9
2016-08-27T02:39:22.468Z,968.91
2016-08-27T02:40:22.436Z,968.91
2016-08-27T02:41:22.406Z,968.88
2016-08-27T02:42:22.373Z,968.93
2016-08-27T02:43:22.344Z,968.91
2016-08-27T02:44:22.310Z,968.91
2016-08-27T02:45:22.281Z,968.91
2016-08-27T02:46:22.249Z,968.89
2016-08-27T02:47:22.219Z,968.87
2016-08-27T02:48:22.189Z,968.86
2016-08-27T02:49:22.158Z,968.91
2016-08-27T02:50:22.125Z,968.91
2016-08-27T02:51:22.094Z,968.92
2016-08-27T02:52:22.064Z,968.91
2016-08-27T02:53:22.036Z,968.9
2016-08-27T02:54:22.006Z,968.91
2016-08-27T02:55:21.970Z,968.89
2016-08-27T02:56:21.945Z,968.85
2016-08-27T02:57:21.908Z,968.85
2016-08-27T02:58:21.878Z,968.88
2016-08-27T02:59:21.846Z,968.92
2016-08-27T03:00:21.815Z,968.9
2016-08-27T03:01:21.786Z,968.89
2016-08-27T03:02:21.753Z,968.91
2016-08-27T03:03:21.721Z,968.9
2016-08-27T03:04:21.691Z,968.88
2016-08-27T03:05:21.660Z,968.91
2016-08-27T03:06:21.629Z,968.87
2016-08-27T03:07:21.597Z,968.87
2016-08-27T03:08:21.571Z,968.88
2016-08-27T03:09:21.537Z,968.89
2016-08-27T03:10:21.505Z,968.93
2016-08-27T03:11:21.476Z,968.91
2016-08-27T03:12:21.444Z,968.91
2016-08-27T03:13:21.410Z,968.9
2016-08-27T03:14:21.382Z,968.9
2016-08-27T03:15:21.349Z,968.9
2016-08-27T03:16:21.317Z,968.88
2016-08-27T03:17:21.288Z,968.84
2016-08-27T03:18:21.260Z,968.83
2016-08-27T03:19:21.232Z,968.87
2016-08-27T03:20:21.193Z,968.86
2016-08-27T03:21:21.163Z,968.88
2016-08-27T03:22:21.131Z,968.92
2016-08-27T03:23:21.101Z,968.86
2016-08-27T03:24:21.071Z,968.85
2016-08-27T03:25:21.038Z,968.87
2016-08-27T03:26:21.008Z,968.89
2016-08-27T03:27:20.976Z,968.87
2016-08-27T03:28:20.945Z,968.85
2016-08-27T03:29:20.914Z,968.85
2016-08-27T03:30:20.883Z,968.85
2016-08-27T03:31:20.851Z,968.86
2016-08-27T03:32:20.822Z,968.84
2016-08-27T03:33:20.789Z,968.86
2016-08-27T03:34:20.758Z,968.84
2016-08-27T03:35:20.729Z,968.83
2016-08-27T03:36:20.695Z,968.83
2016-08-27T03:37:20.666Z,968.83
2016-08-27T03:38:20.633Z,968.82
2016-08-27T03:39:20.600Z,968.81
2016-08-27T03:40:20.570Z,968.8
2016-08-27T03:41:20.539Z,968.76
2016-08-27T03:42:20.509Z,968.79
2016-08-27T03:43:20.478Z,968.78
2016-08-27T03:44:20.444Z,968.77
2016-08-27T03:45:20.414Z,968.79
2016-08-27T03:46:20.383Z,968.81
2016-08-27T03:47:20.352Z,968.82
2016-08-27T03:48:20.321Z,968.79
2016-08-27T03:49:20.290Z,968.75
2016-08-27T03:50:20.257Z,968.78
2016-08-27T03:51:20.226Z,968.72
2016-08-27T03:52:20.195Z,968.75
2016-08-27T03:53:20.167Z,968.73
2016-08-27T03:54:20.134Z,968.73
2016-08-27T03:55:20.103Z,968.66
2016-08-27T03:56:20.074Z,968.7
2016-08-27T03:57:20.043Z,968.7
2016-08-27T03:58:20.007Z,968.68
2016-08-27T03:59:19.978Z,968.67
2016-08-27T04:00:19.946Z,968.7
2016-08-27T04:01:19.916Z,968.71
2016-08-27T04:02:19.881Z,968.71
2016-08-27T04:03:19.850Z,968.72
2016-08-27T04:04:19.820Z,968.7
2016-08-27T04:05:19.789Z,968.7
2016-08-27T04:06:19.758Z,968.7
2016-08-27T04:07:19.727Z,968.71
2016-08-27T04:08:19.695Z,968.71
2016-08-27T04:09:19.663Z,968.71
2016-08-27T04:10:19.633Z,968.75
2016-08-27T04:11:19.601Z,968.69
2016-08-27T04:12:19.569Z,968.73
2016-08-27T04:13:19.553Z,968.75
2016-08-27T04:14:19.506Z,968.74
2016-08-27T04:15:19.475Z,968.75
2016-08-27T04:16:19.445Z,968.73
2016-08-27T04:17:19.414Z,968.7
2016-08-27T04:18:19.386Z,968.74
2016-08-27T04:19:19.351Z,968.75
2016-08-27T04:20:19.319Z,968.76
2016-08-27T04:21:19.289Z,968.76
2016-08-27T04:22:19.258Z,968.74
2016-08-27T04:23:19.236Z,968.78
2016-08-27T04:24:19.195Z,968.78
2016-08-27T04:25:19.164Z,968.77
2016-08-27T04:26:19.130Z,968.8
2016-08-27T04:27:19.099Z,968.77
2016-08-27T04:28:19.068Z,968.74
2016-08-27T04:29:19.037Z,968.71
2016-08-27T04:30:19.006Z,968.7
2016-08-27T04:31:18.973Z,968.72
2016-08-27T04:32:18.946Z,968.69
2016-08-27T04:33:18.912Z,968.72
2016-08-27T04:34:18.880Z,968.69
2016-08-27T04:35:18.853Z,968.7
2016-08-27T04:36:18.817Z,968.69
2016-08-27T04:37:18.785Z,968.7
2016-08-27T04:38:18.754Z,968.59
2016-08-27T04:39:18.726Z,968.68
2016-08-27T04:40:18.692Z,968.66
2016-08-27T04:41:18.662Z,968.64
2016-08-27T04:42:18.639Z,968.66
2016-08-27T04:43:18.600Z,968.69
2016-08-27T04:44:18.568Z,968.67
2016-08-27T04:45:18.537Z,968.69
2016-08-27T04:46:18.505Z,968.69
2016-08-27T04:47:18.474Z,968.71
2016-08-27T04:48:18.441Z,968.66
2016-08-27T04:49:18.411Z,968.67
2016-08-27T04:50:18.379Z,968.64
2016-08-27T04:51:18.348Z,968.65
2016-08-27T04:52:18.318Z,968.67
2016-08-27T04:53:18.286Z,968.7
2016-08-27T04:54:18.255Z,968.68
2016-08-27T04:55:18.221Z,968.67
2016-08-27T04:56:18.195Z,968.74
2016-08-27T04:57:18.159Z,968.72
2016-08-27T04:58:18.129Z,968.76
2016-08-27T04:59:18.097Z,968.72
2016-08-27T05:00:18.066Z,968.75
2016-08-27T05:01:18.033Z,968.76
2016-08-27T05:02:18.003Z,968.78
2016-08-27T05:03:17.971Z,968.81
2016-08-27T05:04:17.941Z,968.8
2016-08-27T05:05:17.908Z,968.82
2016-08-27T05:06:17.876Z,968.79
2016-08-27T05:07:17.846Z,968.78
2016-08-27T05:08:17.814Z,968.79
2016-08-27T05:09:17.790Z,968.83
2016-08-27T05:10:17.752Z,968.82
2016-08-27T05:11:17.720Z,968.83
2016-08-27T05:12:17.689Z,968.82
2016-08-27T05:13:17.659Z,968.89
2016-08-27T05:14:17.633Z,968.89
2016-08-27T05:15:17.597Z,968.88
2016-08-27T05:16:17.567Z,968.84
2016-08-27T05:17:17.534Z,968.88
2016-08-27T05:18:17.504Z,968.92
2016-08-27T05:19:17.478Z,969
2016-08-27T05:20:17.447Z,968.95
2016-08-27T05:21:17.414Z,968.98
2016-08-27T05:22:17.382Z,968.95
2016-08-27T05:23:17.355Z,968.97
2016-08-27T05:24:17.323Z,969.02
2016-08-27T05:25:17.294Z,969.03
2016-08-27T05:26:17.266Z,969.01
2016-08-27T05:27:17.245Z,969.03
2016-08-27T05:28:17.207Z,969.02
2016-08-27T05:29:17.186Z,969
2016-08-27T05:30:17.151Z,969.05
2016-08-27T05:31:17.122Z,969.08
2016-08-27T05:32:17.093Z,969.1
2016-08-27T05:33:17.063Z,969.08
2016-08-27T05:34:17.043Z,969.12
2016-08-27T05:35:17.012Z,969.13
2016-08-27T05:36:16.983Z,969.14
2016-08-27T05:37:16.959Z,969.16
2016-08-27T05:38:16.931Z,969.17
2016-08-27T05:39:16.903Z,969.19
2016-08-27T05:40:16.877Z,969.16
2016-08-27T05:41:16.850Z,969.22
2016-08-27T05:42:16.822Z,969.19
2016-08-27T05:43:16.797Z,969.18
2016-08-27T05:44:16.772Z,969.14
2016-08-27T05:45:16.746Z,969.15
2016-08-27T05:46:16.719Z,969.12
2016-08-27T05:47:16.693Z,969.15
2016-08-27T05:48:16.669Z,969.14
2016-08-27T05:49:16.643Z,969.16
2016-08-27T05:50:16.618Z,969.18
2016-08-27T05:51:16.593Z,969.22
2016-08-27T05:52:16.569Z,969.19
2016-08-27T05:53:16.545Z,969.2
2016-08-27T05:54:16.519Z,969.27
2016-08-27T05:55:16.497Z,969.28
2016-08-27T05:56:16.473Z,969.32
2016-08-27T05:57:16.449Z,969.35
2016-08-27T05:58:16.422Z,969.3
2016-08-27T05:59:16.400Z,969.36
2016-08-27T06:00:16.376Z,969.37
2016-08-27T06:01:16.351Z,969.37
2016-08-27T06:02:16.331Z,969.33
2016-08-27T06:03:16.304Z,969.37
2016-08-27T06:04:16.281Z,969.39
2016-08-27T06:05:16.259Z,969.41
2016-08-27T06:06:16.235Z,969.4
2016-08-27T06:07:16.215Z,969.39
2016-08-27T06:08:16.194Z,969.38
2016-08-27T06:09:16.168Z,969.38
2016-08-27T06:10:16.150Z,969.41
2016-08-27T06:11:16.125Z,969.44
2016-08-27T06:12:16.099Z,969.42
2016-08-27T06:13:16.078Z,969.41
2016-08-27T06:14:16.057Z,969.42
2016-08-27T06:15:16.036Z,969.46
2016-08-27T06:16:16.014Z,969.53
2016-08-27T06:17:15.990Z,969.48
2016-08-27T06:18:15.971Z,969.51
2016-08-27T06:19:15.949Z,969.53
2016-08-27T06:20:15.928Z,969.51
2016-08-27T06:21:15.906Z,969.53
2016-08-27T06:22:15.885Z,969.57
2016-08-27T06:23:15.863Z,969.62
2016-08-27T06:24:15.844Z,969.52
2016-08-27T06:25:15.821Z,969.55
2016-08-27T06:26:15.802Z,969.56
2016-08-27T06:27:15.782Z,969.59
2016-08-27T06:28:15.767Z,969.58
2016-08-27T06:29:15.741Z,969.57
2016-08-27T06:30:15.718Z,969.57
2016-08-27T06:31:15.699Z,969.53
2016-08-27T06:32:15.677Z,969.56
2016-08-27T06:33:15.659Z,969.55
2016-08-27T06:34:15.640Z,969.56
2016-08-27T06:35:15.618Z,969.58
2016-08-27T06:36:15.598Z,969.64
2016-08-27T06:37:15.577Z,969.61
2016-08-27T06:38:15.558Z,969.65
2016-08-27T06:39:15.538Z,969.61
2016-08-27T06:40:15.520Z,969.61
2016-08-27T06:41:15.498Z,969.64
2016-08-27T06:42:15.492Z,969.64
2016-08-27T06:43:15.459Z,969.65
2016-08-27T06:44:15.447Z,969.63
2016-08-27T06:45:15.425Z,969.67
2016-08-27T06:46:15.402Z,969.66
2016-08-27T06:47:15.385Z,969.67
2016-08-27T06:48:15.367Z,969.73
2016-08-27T06:49:15.345Z,969.69
2016-08-27T06:50:15.327Z,969.69
2016-08-27T06:51:15.309Z,969.71
2016-08-27T06:52:15.289Z,969.71
2016-08-27T06:53:15.271Z,969.7
2016-08-27T06:54:15.253Z,969.68
2016-08-27T06:55:15.237Z,969.65
2016-08-27T06:56:15.216Z,969.7
2016-08-27T06:57:15.200Z,969.72
2016-08-27T06:58:15.180Z,969.74
2016-08-27T06:59:15.161Z,969.69
2016-08-27T07:00:15.144Z,969.73
2016-08-27T07:01:15.128Z,969.72
2016-08-27T07:02:15.110Z,969.79
2016-08-27T07:03:15.095Z,969.69
2016-08-27T07:04:15.075Z,969.73
2016-08-27T07:05:15.056Z,969.76
2016-08-27T07:06:15.040Z,969.76
2016-08-27T07:07:15.022Z,969.74
2016-08-27T07:08:15.006Z,969.76
2016-08-27T07:09:14.995Z,969.75
2016-08-27T07:10:14.973Z,969.83
2016-08-27T07:11:14.953Z,969.8
2016-08-27T07:12:14.938Z,969.8
2016-08-27T07:13:14.928Z,969.8
2016-08-27T07:14:14.904Z,969.84
2016-08-27T07:15:14.884Z,969.88
2016-08-27T07:16:14.873Z,969.91
2016-08-27T07:17:14.856Z,969.86
2016-08-27T07:18:14.839Z,969.87
2016-08-27T07:19:14.823Z,969.86
2016-08-27T07:20:14.808Z,969.89
2016-08-27T07:21:14.792Z,969.88
2016-08-27T07:22:14.774Z,969.83
2016-08-27T07:23:14.758Z,969.83
2016-08-27T07:24:14.743Z,969.83
2016-08-27T07:25:14.726Z,969.85
2016-08-27T07:26:14.709Z,969.89
2016-08-27T07:27:14.694Z,969.88
2016-08-27T07:28:14.679Z,969.89
2016-08-27T07:29:14.664Z,969.82
2016-08-27T07:30:14.648Z,969.86
2016-08-27T07:31:14.632Z,969.86
2016-08-27T07:32:14.614Z,969.89
2016-08-27T07:33:14.596Z,969.89
2016-08-27T07:34:14.586Z,969.94
2016-08-27T07:35:14.567Z,969.96
2016-08-27T07:36:14.549Z,969.96
2016-08-27T07:37:14.533Z,969.91
2016-08-27T07:38:14.517Z,969.92
2016-08-27T07:39:14.503Z,969.97
2016-08-27T07:40:14.492Z,969.97
2016-08-27T07:41:14.471Z,970.02
2016-08-27T07:42:14.453Z,969.97
2016-08-27T07:43:14.439Z,969.97
2016-08-27T07:44:14.421Z,970
2016-08-27T07:45:14.405Z,969.99
2016-08-27T07:46:14.389Z,970.05
2016-08-27T07:47:14.373Z,970.06
2016-08-27T07:48:14.356Z,970.05
2016-08-27T07:49:14.342Z,970.04
2016-08-27T07:50:14.325Z,970.05
2016-08-27T07:51:14.307Z,970.08
2016-08-27T07:52:14.289Z,970.1
2016-08-27T07:53:14.273Z,970.14
2016-08-27T07:54:14.257Z,970.19
2016-08-27T07:55:14.239Z,970.23
2016-08-27T07:56:14.221Z,970.29
2016-08-27T07:57:14.205Z,970.29
2016-08-27T07:58:14.188Z,970.32
2016-08-27T07:59:14.171Z,970.34
2016-08-27T08:00:14.154Z,970.38
2016-08-27T08:01:14.142Z,970.38
2016-08-27T08:02:14.123Z,970.4
2016-08-27T08:03:14.103Z,970.48
2016-08-27T08:04:14.085Z,970.46
2016-08-27T08:05:14.068Z,970.44
2016-08-27T08:06:14.048Z,970.5
2016-08-27T08:07:14.032Z,970.46
2016-08-27T08:08:14.016Z,970.52
2016-08-27T08:09:13.997Z,970.49
2016-08-27T08:10:13.979Z,970.45
2016-08-27T08:11:13.965Z,970.48
2016-08-27T08:12:13.946Z,970.49
2016-08-27T08:13:13.928Z,970.56
2016-08-27T08:14:13.929Z,970.55
2016-08-27T08:15:13.895Z,970.55
2016-08-27T08:16:13.877Z,970.59
2016-08-27T08:17:13.860Z,970.6
2016-08-27T08:18:13.845Z,970.62
2016-08-27T08:19:13.827Z,970.61
2016-08-27T08:20:13.809Z,970.67
2016-08-27T08:21:13.792Z,970.69
2016-08-27T08:22:13.776Z,970.75
2016-08-27T08:23:13.760Z,970.73
2016-08-27T08:24:13.742Z,970.73
2016-08-27T08:25:13.726Z,970.76
2016-08-27T08:26:13.709Z,970.77
2016-08-27T08:27:13.693Z,970.83
2016-08-27T08:28:13.676Z,970.83
2016-08-27T08:29:13.659Z,970.88
2016-08-27T08:30:13.646Z,970.92
2016-08-27T08:31:13.628Z,970.94
2016-08-27T08:32:13.610Z,970.91
2016-08-27T08:33:13.593Z,970.94
2016-08-27T08:34:13.577Z,970.95
2016-08-27T08:35:13.559Z,970.91
2016-08-27T08:36:13.543Z,970.96
2016-08-27T08:37:13.527Z,971
2016-08-27T08:38:13.511Z,971.04
2016-08-27T08:39:13.495Z,971.06
2016-08-27T08:40:13.479Z,971.07
2016-08-27T08:41:13.465Z,971.1
2016-08-27T08:42:13.447Z,971.12
2016-08-27T08:43:13.432Z,971.12
2016-08-27T08:44:13.417Z,971.17
2016-08-27T08:45:13.403Z,971.16
2016-08-27T08:46:13.386Z,971.13
2016-08-27T08:47:13.371Z,971.11
2016-08-27T08:48:13.354Z,971.1
2016-08-27T08:49:13.341Z,971.09
2016-08-27T08:50:13.330Z,971.14
2016-08-27T08:51:13.309Z,971.12
2016-08-27T08:52:13.297Z,971.09
2016-08-27T08:53:13.283Z,971.13
2016-08-27T08:54:13.268Z,971.1
2016-08-27T08:55:13.253Z,971.09
2016-08-27T08:56:13.237Z,971.09
2016-08-27T08:57:13.223Z,971.1
2016-08-27T08:58:13.209Z,971.04
2016-08-27T08:59:13.202Z,971.04
2016-08-27T09:00:13.182Z,971.08
2016-08-27T09:01:13.168Z,971.04
2016-08-27T09:02:13.153Z,971.06
2016-08-27T09:03:13.142Z,971.05
2016-08-27T09:04:13.126Z,971.07
2016-08-27T09:05:13.112Z,971.12
2016-08-27T09:06:13.098Z,971.11
2016-08-27T09:07:13.086Z,971.08
2016-08-27T09:08:13.073Z,971.1
2016-08-27T09:09:13.060Z,971.1
2016-08-27T09:10:13.046Z,971.12
2016-08-27T09:11:13.033Z,971.14
2016-08-27T09:12:13.018Z,971.17
2016-08-27T09:13:13.006Z,971.14
2016-08-27T09:14:12.994Z,971.15
2016-08-27T09:15:12.978Z,971.21
2016-08-27T09:16:12.966Z,971.21
2016-08-27T09:17:12.953Z,971.25
2016-08-27T09:18:12.940Z,971.27
2016-08-27T09:19:12.924Z,971.28
2016-08-27T09:20:12.914Z,971.37
2016-08-27T09:21:12.898Z,971.38
2016-08-27T09:22:12.884Z,971.43
2016-08-27T09:23:12.872Z,971.48
2016-08-27T09:24:12.859Z,971.53
2016-08-27T09:25:12.845Z,971.57
2016-08-27T09:26:12.831Z,971.66
2016-08-27T09:27:12.823Z,971.68
2016-08-27T09:28:12.808Z,971.74
2016-08-27T09:29:12.796Z,971.76
2016-08-27T09:30:12.781Z,971.81
2016-08-27T09:31:12.770Z,971.87
2016-08-27T09:32:12.758Z,971.99
2016-08-27T09:33:12.744Z,972.09
2016-08-27T09:34:12.732Z,972.16
2016-08-27T09:35:12.723Z,972.19
2016-08-27T09:36:12.708Z,972.33
2016-08-27T09:37:12.695Z,972.41
2016-08-27T09:38:12.684Z,972.45
2016-08-27T09:39:12.671Z,972.49
2016-08-27T09:40:12.662Z,972.46
2016-08-27T09:41:12.648Z,972.44
2016-08-27T09:42:12.635Z,972.35
2016-08-27T09:43:12.623Z,972.29
2016-08-27T09:44:12.610Z,971.7
2016-08-27T09:45:12.599Z,970.87
2016-08-27T09:46:12.586Z,970.64
2016-08-27T09:47:12.574Z,970.6
2016-08-27T09:48:12.561Z,970.57
2016-08-27T09:49:12.550Z,970.5
2016-08-27T09:50:12.539Z,970.49
2016-08-27T09:51:12.525Z,970.45
2016-08-27T09:52:12.521Z,970.43
2016-08-27T09:53:12.504Z,970.39
2016-08-27T09:54:12.493Z,970.39
2016-08-27T09:55:12.478Z,970.36
2016-08-27T09:56:12.468Z,970.28
2016-08-27T09:57:12.457Z,970.28
2016-08-27T09:58:12.445Z,970.28
2016-08-27T09:59:12.433Z,970.22
2016-08-27T10:00:12.420Z,970.2
2016-08-27T10:01:12.410Z,970.22
2016-08-27T10:02:12.396Z,970.26
2016-08-27T10:03:12.387Z,970.21
2016-08-27T10:04:12.375Z,970.25
2016-08-27T10:05:12.364Z,970.38
2016-08-27T10:06:12.350Z,970.71
2016-08-27T10:07:12.337Z,971.37
2016-08-27T10:08:12.327Z,971.71
2016-08-27T10:09:12.314Z,971.7
2016-08-27T10:10:12.312Z,971.7
2016-08-27T10:11:12.291Z,971.62
2016-08-27T10:12:12.286Z,971.55
2016-08-27T10:13:12.268Z,971.51
2016-08-27T10:14:12.255Z,971.47
2016-08-27T10:15:12.246Z,971.45
2016-08-27T10:16:12.235Z,971.45
2016-08-27T10:17:12.224Z,971.45
2016-08-27T10:18:12.211Z,971.45
2016-08-27T10:19:12.199Z,971.45
2016-08-27T10:20:12.188Z,971.5
2016-08-27T10:21:12.175Z,971.45
2016-08-27T10:22:12.163Z,971.48
2016-08-27T10:23:12.154Z,971.5
2016-08-27T10:24:12.141Z,971.62
2016-08-27T10:25:12.133Z,971.72
2016-08-27T10:26:12.119Z,971.85
2016-08-27T10:27:12.111Z,972.05
2016-08-27T10:28:12.095Z,972.13
2016-08-27T10:29:12.083Z,972.35
2016-08-27T10:30:12.073Z,972.63
2016-08-27T10:31:12.061Z,972.59
2016-08-27T10:32:12.050Z,972.68
2016-08-27T10:33:12.040Z,972.97
2016-08-27T10:34:12.025Z,972.86
2016-08-27T10:35:12.012Z,972.97
2016-08-27T10:36:11.999Z,972.8
2016-08-27T10:37:11.989Z,972.89
2016-08-27T10:38:11.976Z,973.05
2016-08-27T10:39:11.962Z,973.06
2016-08-27T10:40:11.951Z,973.02
2016-08-27T10:41:11.939Z,973.1
2016-08-27T10:42:11.929Z,973.27
2016-08-27T10:43:11.922Z,973.2
2016-08-27T10:44:11.903Z,973.1
2016-08-27T10:45:11.890Z,973
2016-08-27T10:46:11.880Z,972.88
2016-08-27T10:47:11.865Z,972.7
2016-08-27T10:48:11.852Z,971.91
2016-08-27T10:49:11.842Z,970.8
2016-08-27T10:50:11.827Z,970.57
2016-08-27T10:51:11.815Z,970.52
2016-08-27T10:52:11.804Z,970.45
2016-08-27T10:53:11.790Z,970.38
2016-08-27T10:54:11.776Z,970.32
2016-08-27T10:55:11.766Z,970.24
2016-08-27T10:56:11.752Z,970.19
2016-08-27T10:57:11.739Z,970.17
2016-08-27T10:58:11.727Z,970.12
2016-08-27T10:59:11.711Z,970.14
2016-08-27T11:00:11.699Z,970.05
2016-08-27T11:01:11.684Z,970.04
2016-08-27T11:02:11.672Z,970.05
2016-08-27T11:03:11.659Z,970.02
2016-08-27T11:04:11.648Z,970.05
2016-08-27T11:05:11.633Z,970.44
2016-08-27T11:06:11.621Z,970.52
2016-08-27T11:07:11.608Z,970.55
2016-08-27T11:08:11.595Z,970.47
2016-08-27T11:09:11.582Z,970.51
2016-08-27T11:10:11.569Z,970.48
2016-08-27T11:11:11.555Z,970.41
2016-08-27T11:12:11.543Z,970.37
2016-08-27T11:13:11.528Z,970.28
2016-08-27T11:14:11.515Z,970.27
2016-08-27T11:15:11.501Z,969.96
2016-08-27T11:16:11.488Z,969.75
2016-08-27T11:17:11.474Z,969.76
2016-08-27T11:18:11.462Z,969.71
2016-08-27T11:19:11.443Z,969.63
2016-08-27T11:20:11.431Z,969.52
2016-08-27T11:21:11.414Z,969.54
2016-08-27T11:22:11.398Z,969.48
2016-08-27T11:23:11.381Z,969.41
2016-08-27T11:24:11.365Z,969.35
2016-08-27T11:25:11.350Z,969.35
2016-08-27T11:26:11.334Z,969.3
2016-08-27T11:27:11.316Z,969.23
2016-08-27T11:28:11.298Z,969.29
2016-08-27T11:29:11.283Z,969.2
2016-08-27T11:30:11.268Z,969.2
2016-08-27T11:31:11.245Z,969.13
2016-08-27T11:32:11.225Z,969.21
2016-08-27T11:33:11.207Z,969.22
2016-08-27T11:34:11.189Z,969.2
2016-08-27T11:35:11.171Z,969.17
2016-08-27T11:36:11.152Z,969.17
2016-08-27T11:37:11.131Z,969.17
2016-08-27T11:38:11.113Z,969.1
2016-08-27T11:39:11.093Z,969.15
2016-08-27T11:40:11.096Z,969.17
2016-08-27T11:41:11.053Z,969.15
2016-08-27T11:42:11.034Z,969.08
2016-08-27T11:43:11.014Z,969.11
2016-08-27T11:44:10.995Z,969.08
2016-08-27T11:45:10.973Z,969.04
2016-08-27T11:46:10.953Z,969.04
2016-08-27T11:47:10.932Z,969.05
2016-08-27T11:48:10.912Z,969.03
2016-08-27T11:49:10.889Z,969
2016-08-27T11:50:10.866Z,968.98
2016-08-27T11:51:10.847Z,968.97
2016-08-27T11:52:10.825Z,969
2016-08-27T11:53:10.802Z,968.97
2016-08-27T11:54:10.780Z,968.97
2016-08-27T11:55:10.758Z,968.95
2016-08-27T11:56:10.740Z,968.97
2016-08-27T11:57:10.714Z,968.97
2016-08-27T11:58:10.690Z,968.98
2016-08-27T11:59:10.668Z,968.94
2016-08-27T12:00:10.646Z,968.92
2016-08-27T12:01:10.622Z,968.93
2016-08-27T12:02:10.602Z,968.91
2016-08-27T12:03:10.578Z,968.91
2016-08-27T12:04:10.555Z,968.87
2016-08-27T12:05:10.531Z,968.87
2016-08-27T12:06:10.509Z,968.92
2016-08-27T12:07:10.486Z,968.86
2016-08-27T12:08:10.465Z,968.89
2016-08-27T12:09:10.439Z,968.89
2016-08-27T12:10:10.419Z,968.89
2016-08-27T12:11:10.396Z,968.84
2016-08-27T12:12:10.375Z,968.81
2016-08-27T12:13:10.347Z,968.86
2016-08-27T12:14:10.322Z,968.8
2016-08-27T12:15:10.302Z,968.85
2016-08-27T12:16:10.277Z,968.81
2016-08-27T12:17:10.257Z,968.78
2016-08-27T12:18:10.230Z,968.77
2016-08-27T12:19:10.207Z,968.74
2016-08-27T12:20:10.186Z,968.71
2016-08-27T12:21:10.159Z,968.72
2016-08-27T12:22:10.136Z,968.69
2016-08-27T12:23:10.119Z,968.66
2016-08-27T12:24:10.090Z,968.61
2016-08-27T12:25:10.067Z,968.64
2016-08-27T12:26:10.051Z,968.59
2016-08-27T12:27:10.021Z,968.63
2016-08-27T12:28:09.997Z,968.6
2016-08-27T12:29:09.971Z,968.55
2016-08-27T12:30:09.950Z,968.59
2016-08-27T12:31:09.927Z,968.58
2016-08-27T12:32:09.902Z,968.57